NCAR-RAP Real-Time Weather Data

Output produced by METARs form (10 April 2020  07:06 UTC)
found at http://weather.rap.ucar.edu/surface/
 
KALO 100654Z AUTO 30009KT 10SM CLR M01/M06 A3011 RMK AO2 SLP205 T10111061
KALO 100554Z AUTO 30010KT 10SM CLR M01/M07 A3010 RMK AO2 SLP202 T10061067 10039 21006 400781006 53007
KALO 100454Z AUTO 30012KT 10SM CLR 00/M07 A3009 RMK AO2 SLP196 T00001072
KALO 100354Z AUTO 30011G17KT 10SM CLR 01/M07 A3008 RMK AO2 SLP195 T00061072
KALO 100254Z AUTO 30009KT 10SM CLR 01/M07 A3008 RMK AO2 SLP193 T00111072 53024
KALO 100154Z AUTO 30012KT 10SM CLR 02/M08 A3006 RMK AO2 PK WND 31027/0121 SLP185 T00171078
KALO 100054Z 32017G27KT 10SM CLR 03/M08 A3002 RMK AO2 PK WND 31031/0032 SLP174 T00281083
KALO 092354Z 32020G30KT 10SM SCT075 04/M08 A3000 RMK AO2 PK WND 31035/2339 SLP169 60000 T00391083 10072 20033 53024
KALO 092254Z 32026G34KT 10SM CLR 05/M09 A2998 RMK AO2 PK WND 34040/2226 SLP159 T00501089
KALO 092154Z 35021G40KT 10SM SCT055 BKN075 BKN090 04/M08 A2996 RMK AO2 PK WND 32048/2057 SLP151 T00441083
KALO 092054Z 31027G38KT 10SM SCT055 BKN075 BKN090 07/M09 A2993 RMK AO2 PK WND 31044/2042 SLP143 60000 T00671094 53009
KALO 091954Z 31022G40KT 10SM FEW050 FEW055 BKN080 06/M08 A2992 RMK AO2 PK WND 32045/1911 SLP140 T00561083
KALO 091854Z 31025G42KT 10SM FEW040 FEW046 FEW060 06/M06 A2991 RMK AO2 PK WND 32042/1838 RAE1757B13E31 SLP133 P0000 T00611061
KALO 091754Z 29016G36KT 9SM -RA SCT029 SCT041 BKN050 05/M03 A2990 RMK AO2 PK WND 31040/1744 RAB37E39B51SNB39E51 SLP132 P0000 60000 T00501028 10078 20006 50006
KALO 091752Z 31019G40KT 8SM -RA SCT029 BKN045 BKN055 04/M03 A2991 RMK AO2 PK WND 31040/1744 RAB37E39B51SNB39E51 P0000
KALO 091744Z 31026G40KT 2 1/2SM -SN SCT024 BKN032 BKN043 04/M02 A2990 RMK AO2 PK WND 31040/1744 VIS 3/4V5 RAB37E39SNB39 P0000 T00441017
KALO 091654Z 30021G35KT 10SM SCT039 BKN060 OVC070 07/M04 A2990 RMK AO2 PK WND 31035/1649 SLP129 T00671044
KALO 091554Z 30018G32KT 10SM SCT050 BKN065 07/M05 A2988 RMK AO2 PK WND 30032/1550 SLP124 T00671050
KALO 091454Z 29011KT 10SM BKN090 07/M03 A2988 RMK AO2 SLP123 T00671033 56012
KALO 091354Z 30012KT 10SM CLR 04/M03 A2989 RMK AO2 SLP125 T00441028
KALO 091254Z 28007KT 10SM CLR 03/M03 A2990 RMK AO2 SLP130 T00281033
KALO 091154Z 25008KT 10SM CLR 01/M03 A2991 RMK AO2 SLP135 70001 T00061033 10050 20000 53003
KALO 091054Z 27007KT 10SM CLR 00/M04 A2991 RMK AO2 SLP134 T00001039
KALO 090954Z AUTO 28007KT 10SM CLR 02/M04 A2991 RMK AO2 SLP132 T00171039
KALO 090854Z AUTO 28007KT 10SM CLR 02/M04 A2991 RMK AO2 SLP132 T00221039 58001